Time;durP1;ratioP1;P1;durP2;ratioP2;P2;SDS_P1;SDS_P2;PMS_P1;PMS_P2;Temp;Humidity;BMP_temperature;BMP_pressure;BME280_temperature;BME280_humidity;BME280_pressure;Samples;Min_cycle;Max_cycle;Signal;HPM_P1;HPM_P2
2022/11/23 00:01:20;;;;;;;33.30;22.65;;;;;;;;;;5019470;28;20117;-73
2022/11/23 00:03:47;;;;;;;27.83;20.58;;;;;;;;;;5023149;28;20397;-73
2022/11/23 00:06:14;;;;;;;30.15;22.33;;;;;;;;;;5024593;28;20038;-73
2022/11/23 00:08:40;;;;;;;29.58;22.77;;;;;;;;;;5013091;28;20045;-73
2022/11/23 00:11:06;;;;;;;31.10;21.83;;;;;;;;;;5014111;28;20096;-73
2022/11/23 00:13:34;;;;;;;31.52;22.33;;;;;;;;;;5021484;28;20041;-73
2022/11/23 00:16:00;;;;;;;30.92;22.58;;;;;;;;;;5017898;28;20037;-73
2022/11/23 00:18:26;;;;;;;27.10;22.30;;;;;;;;;;5018534;28;20045;-73
2022/11/23 00:20:52;;;;;;;29.05;21.27;;;;;;;;;;5013147;28;20045;-73
2022/11/23 00:23:19;;;;;;;30.63;22.23;;;;;;;;;;5016880;28;20110;-74
2022/11/23 00:25:45;;;;;;;33.28;22.98;;;;;;;;;;5015476;28;20045;-72
2022/11/23 00:28:11;;;;;;;29.27;21.20;;;;;;;;;;5016199;28;20124;-73
2022/11/23 00:30:37;;;;;;;31.88;21.77;;;;;;;;;;5018685;28;20042;-74
2022/11/23 00:33:03;;;;;;;30.77;22.25;;;;;;;;;;5015205;28;20042;-73
2022/11/23 00:35:29;;;;;;;28.77;21.42;;;;;;;;;;5012875;28;20159;-73
2022/11/23 00:37:55;;;;;;;30.38;21.00;;;;;;;;;;5016111;28;20045;-72
2022/11/23 00:40:21;;;;;;;26.02;20.88;;;;;;;;;;5014419;28;20044;-73
2022/11/23 00:42:48;;;;;;;31.42;21.55;;;;;;;;;;5024901;28;20049;-73
2022/11/23 00:45:14;;;;;;;26.80;20.85;;;;;;;;;;5018810;28;20282;-73
2022/11/23 00:47:40;;;;;;;25.55;20.73;;;;;;;;;;5028295;28;20041;-73
2022/11/23 00:50:06;;;;;;;28.30;20.80;;;;;;;;;;5004862;28;20480;-73
2022/11/23 00:52:32;;;;;;;29.00;21.05;;;;;;;;;;5015223;28;20033;-73
2022/11/23 00:54:58;;;;;;;26.25;19.67;;;;;;;;;;5018911;28;20108;-73
2022/11/23 00:57:24;;;;;;;30.02;20.90;;;;;;;;;;5016056;28;20060;-73
2022/11/23 00:59:50;;;;;;;32.33;21.13;;;;;;;;;;5025773;28;20080;-73
2022/11/23 01:02:16;;;;;;;29.98;20.88;;;;;;;;;;5022270;28;22179;-72
2022/11/23 01:04:42;;;;;;;32.25;21.13;;;;;;;;;;5018749;28;20038;-73
2022/11/23 01:07:08;;;;;;;28.13;20.08;;;;;;;;;;5020284;28;20052;-73
2022/11/23 01:09:34;;;;;;;26.90;20.52;;;;;;;;;;5033311;28;20045;-73
2022/11/23 01:12:00;;;;;;;32.88;20.70;;;;;;;;;;5023462;28;20042;-73
2022/11/23 01:14:26;;;;;;;31.55;21.67;;;;;;;;;;5026960;28;20042;-73
2022/11/23 01:16:52;;;;;;;29.13;22.02;;;;;;;;;;5011203;28;20049;-73
2022/11/23 01:19:19;;;;;;;34.30;22.08;;;;;;;;;;5016842;28;20543;-73
2022/11/23 01:21:46;;;;;;;31.38;21.35;;;;;;;;;;5027921;28;20657;-73
2022/11/23 01:24:17;;;;;;;30.80;21.75;;;;;;;;;;5027143;28;20108;-73
2022/11/23 01:26:43;;;;;;;29.05;20.80;;;;;;;;;;5005491;28;20037;-72
2022/11/23 01:29:09;;;;;;;31.45;22.02;;;;;;;;;;5033068;28;20124;-73
2022/11/23 01:31:36;;;;;;;31.40;21.38;;;;;;;;;;5023618;28;20512;-74
2022/11/23 01:34:03;;;;;;;34.97;21.70;;;;;;;;;;5022090;28;20462;-73
2022/11/23 01:36:30;;;;;;;27.50;21.75;;;;;;;;;;5031980;28;20100;-73
2022/11/23 01:38:57;;;;;;;30.33;21.20;;;;;;;;;;5025331;28;20033;-73
2022/11/23 01:41:24;;;;;;;31.90;21.50;;;;;;;;;;5014811;28;20475;-73
2022/11/23 01:43:50;;;;;;;31.33;22.05;;;;;;;;;;5024771;28;20045;-73
2022/11/23 01:46:17;;;;;;;30.00;21.77;;;;;;;;;;5017802;28;20073;-72
2022/11/23 01:48:46;;;;;;;32.08;22.85;;;;;;;;;;5019974;28;20049;-73
2022/11/23 01:51:13;;;;;;;28.15;21.10;;;;;;;;;;5023976;28;20037;-73
2022/11/23 01:53:40;;;;;;;29.20;21.20;;;;;;;;;;5032210;28;20045;-73
2022/11/23 01:56:07;;;;;;;26.25;21.05;;;;;;;;;;5020396;28;20042;-73
2022/11/23 01:58:36;;;;;;;28.83;20.98;;;;;;;;;;5031557;28;20072;-72
2022/11/23 02:01:02;;;;;;;30.70;21.08;;;;;;;;;;5013412;28;20045;-72
2022/11/23 02:03:30;;;;;;;28.05;21.85;;;;;;;;;;5014396;28;20050;-73
2022/11/23 02:06:00;;;;;;;34.22;22.52;;;;;;;;;;5018037;28;20067;-72
2022/11/23 02:08:27;;;;;;;28.25;22.00;;;;;;;;;;5019631;28;20104;-73
2022/11/23 02:10:53;;;;;;;27.45;20.75;;;;;;;;;;5020792;28;20060;-72
2022/11/23 02:13:20;;;;;;;28.20;21.27;;;;;;;;;;4999337;28;20099;-73
2022/11/23 02:15:46;;;;;;;26.98;21.08;;;;;;;;;;5022016;28;20056;-72
2022/11/23 02:18:15;;;;;;;27.23;21.00;;;;;;;;;;5017371;28;20045;-72
2022/11/23 02:20:42;;;;;;;28.23;21.83;;;;;;;;;;5020580;28;20037;-72
2022/11/23 02:23:27;;;;;;;28.05;21.55;;;;;;;;;;5020848;28;20034;-72
2022/11/23 02:26:03;;;;;;;25.42;21.08;;;;;;;;;;5021991;28;20099;-72
2022/11/23 02:28:33;;;;;;;27.23;20.85;;;;;;;;;;5018468;28;20038;-72
2022/11/23 02:31:00;;;;;;;26.35;20.27;;;;;;;;;;5020426;28;20052;-72
2022/11/23 02:33:26;;;;;;;25.15;21.23;;;;;;;;;;5019328;28;20038;-73
2022/11/23 02:35:54;;;;;;;28.80;20.52;;;;;;;;;;5025212;28;20044;-72
2022/11/23 02:38:20;;;;;;;27.75;20.45;;;;;;;;;;5020611;28;20061;-73
2022/11/23 02:40:47;;;;;;;27.52;21.80;;;;;;;;;;5022037;28;20091;-73
2022/11/23 02:43:13;;;;;;;26.77;20.25;;;;;;;;;;5018757;28;20373;-72
2022/11/23 02:45:46;;;;;;;26.25;21.17;;;;;;;;;;5027858;28;20065;-73
2022/11/23 02:48:12;;;;;;;28.50;20.65;;;;;;;;;;5028779;28;20049;-73
2022/11/23 02:50:38;;;;;;;26.83;20.73;;;;;;;;;;5013229;28;20045;-73
2022/11/23 02:53:04;;;;;;;26.52;21.80;;;;;;;;;;5025843;28;20103;-73
2022/11/23 02:55:30;;;;;;;25.60;21.17;;;;;;;;;;5022397;28;20116;-73
2022/11/23 02:57:56;;;;;;;30.52;21.13;;;;;;;;;;5023622;28;20060;-73
2022/11/23 03:00:22;;;;;;;31.10;21.52;;;;;;;;;;5018405;28;20037;-73
2022/11/23 03:02:48;;;;;;;25.30;20.38;;;;;;;;;;5020020;28;20041;-73
2022/11/23 03:05:14;;;;;;;25.45;19.58;;;;;;;;;;5019991;28;20074;-73
2022/11/23 03:07:40;;;;;;;28.25;20.17;;;;;;;;;;5020490;28;20046;-73
2022/11/23 03:10:07;;;;;;;24.55;19.58;;;;;;;;;;5020601;28;20053;-73
2022/11/23 03:12:33;;;;;;;25.88;18.77;;;;;;;;;;5022329;28;20042;-73
2022/11/23 03:14:59;;;;;;;27.35;19.30;;;;;;;;;;5024608;28;20042;-73
2022/11/23 03:17:26;;;;;;;26.38;19.35;;;;;;;;;;5022220;28;20052;-73
2022/11/23 03:19:52;;;;;;;25.48;19.33;;;;;;;;;;5019455;28;20057;-73
2022/11/23 03:22:18;;;;;;;27.27;19.30;;;;;;;;;;5020085;28;20614;-73
2022/11/23 03:24:44;;;;;;;26.40;19.73;;;;;;;;;;5027688;28;20045;-73
2022/11/23 03:27:10;;;;;;;23.27;17.13;;;;;;;;;;5031181;28;20045;-73
2022/11/23 03:29:36;;;;;;;30.45;19.38;;;;;;;;;;5014044;28;20042;-73
2022/11/23 03:32:02;;;;;;;24.90;18.30;;;;;;;;;;5020880;28;20037;-73
2022/11/23 03:34:29;;;;;;;24.08;17.45;;;;;;;;;;5027528;28;20054;-73
2022/11/23 03:36:55;;;;;;;26.50;19.13;;;;;;;;;;5031354;28;20050;-72
2022/11/23 03:39:21;;;;;;;23.58;17.55;;;;;;;;;;5024722;28;20049;-72
2022/11/23 03:41:47;;;;;;;25.58;17.73;;;;;;;;;;5020390;28;20053;-72
2022/11/23 03:44:13;;;;;;;23.05;17.77;;;;;;;;;;5016448;28;20068;-70
2022/11/23 03:46:39;;;;;;;25.23;17.67;;;;;;;;;;5020431;28;20049;-72
2022/11/23 03:49:05;;;;;;;26.95;18.42;;;;;;;;;;5029687;28;20083;-72
2022/11/23 03:51:31;;;;;;;25.63;17.30;;;;;;;;;;5013934;28;20065;-72
2022/11/23 03:53:57;;;;;;;27.85;17.30;;;;;;;;;;5030152;28;20488;-72
2022/11/23 03:56:23;;;;;;;24.85;18.20;;;;;;;;;;5017210;28;20509;-72
2022/11/23 03:58:49;;;;;;;27.48;18.48;;;;;;;;;;5027348;28;20447;-72
2022/11/23 04:01:15;;;;;;;25.65;18.80;;;;;;;;;;5018723;28;20095;-72
2022/11/23 04:03:41;;;;;;;33.72;19.85;;;;;;;;;;5022630;28;20041;-73
2022/11/23 04:06:07;;;;;;;29.27;18.92;;;;;;;;;;5020949;28;20041;-72
2022/11/23 04:08:33;;;;;;;24.55;18.33;;;;;;;;;;5023258;28;20049;-73
2022/11/23 04:10:59;;;;;;;33.55;18.40;;;;;;;;;;5022810;28;20098;-72
2022/11/23 04:13:25;;;;;;;25.63;18.73;;;;;;;;;;5026978;28;20033;-72
2022/11/23 04:15:52;;;;;;;28.33;18.92;;;;;;;;;;5030030;28;20504;-73
2022/11/23 04:18:18;;;;;;;28.35;18.80;;;;;;;;;;5014577;28;20056;-72
2022/11/23 04:20:44;;;;;;;34.60;19.20;;;;;;;;;;5020618;28;20042;-73
2022/11/23 04:23:10;;;;;;;26.05;18.90;;;;;;;;;;5025862;28;20522;-72
2022/11/23 04:25:36;;;;;;;27.02;18.45;;;;;;;;;;5021988;28;20038;-72
2022/11/23 04:28:02;;;;;;;29.70;19.15;;;;;;;;;;5012660;28;20041;-72
2022/11/23 04:30:28;;;;;;;30.60;19.65;;;;;;;;;;5014348;28;20615;-72
2022/11/23 04:32:54;;;;;;;33.72;20.10;;;;;;;;;;5017150;28;20132;-73
2022/11/23 04:35:21;;;;;;;29.27;19.35;;;;;;;;;;5016104;28;20099;-72
2022/11/23 04:37:47;;;;;;;34.90;20.33;;;;;;;;;;5021476;28;20050;-72
2022/11/23 04:40:13;;;;;;;33.67;19.88;;;;;;;;;;4994846;28;20046;-72
2022/11/23 04:42:39;;;;;;;32.40;19.98;;;;;;;;;;5012234;28;20104;-72
2022/11/23 04:45:10;;;;;;;33.15;20.27;;;;;;;;;;4993340;28;20084;-72
2022/11/23 04:47:36;;;;;;;33.07;18.73;;;;;;;;;;5024157;28;20045;-72
2022/11/23 04:50:02;;;;;;;34.47;18.95;;;;;;;;;;5024865;28;20060;-72
2022/11/23 04:52:28;;;;;;;34.50;19.85;;;;;;;;;;5002536;28;20046;-72
2022/11/23 04:54:54;;;;;;;31.88;19.35;;;;;;;;;;5016254;28;20042;-73
2022/11/23 04:57:20;;;;;;;33.67;19.13;;;;;;;;;;5029564;28;20046;-72
2022/11/23 04:59:47;;;;;;;30.42;19.38;;;;;;;;;;5016003;28;20053;-72
2022/11/23 05:02:13;;;;;;;34.85;19.08;;;;;;;;;;5015042;28;20046;-72
2022/11/23 05:04:39;;;;;;;28.95;18.83;;;;;;;;;;5017020;28;20378;-72
2022/11/23 05:07:05;;;;;;;38.33;19.48;;;;;;;;;;5025184;28;20038;-72
2022/11/23 05:09:31;;;;;;;34.55;19.92;;;;;;;;;;5024553;28;20037;-72
2022/11/23 05:11:58;;;;;;;32.88;19.55;;;;;;;;;;5021007;28;20041;-72
2022/11/23 05:14:24;;;;;;;34.90;20.58;;;;;;;;;;5018916;28;20053;-72
2022/11/23 05:16:50;;;;;;;34.65;19.58;;;;;;;;;;5029153;28;20041;-72
2022/11/23 05:19:16;;;;;;;33.67;19.20;;;;;;;;;;5030594;28;20053;-72
2022/11/23 05:21:42;;;;;;;36.10;19.42;;;;;;;;;;5014250;28;20045;-72
2022/11/23 05:24:08;;;;;;;32.33;20.95;;;;;;;;;;5020343;28;20077;-72
2022/11/23 05:26:34;;;;;;;38.70;19.02;;;;;;;;;;5021274;28;20132;-73
2022/11/23 05:29:00;;;;;;;29.95;18.45;;;;;;;;;;5016580;28;20038;-72
2022/11/23 05:31:26;;;;;;;35.35;18.90;;;;;;;;;;5022068;28;20057;-73
2022/11/23 05:33:52;;;;;;;40.08;19.60;;;;;;;;;;5017905;28;20041;-73
2022/11/23 05:36:18;;;;;;;34.92;19.60;;;;;;;;;;5029270;28;20104;-72
2022/11/23 05:38:44;;;;;;;32.13;18.25;;;;;;;;;;5034982;28;20088;-72
2022/11/23 05:41:10;;;;;;;36.30;18.40;;;;;;;;;;5029276;28;20052;-72
2022/11/23 05:43:36;;;;;;;35.00;17.58;;;;;;;;;;5016459;28;20057;-73
2022/11/23 05:46:03;;;;;;;31.92;18.58;;;;;;;;;;5025517;28;20054;-72
2022/11/23 05:48:29;;;;;;;28.45;16.23;;;;;;;;;;5025638;28;20049;-73
2022/11/23 05:50:55;;;;;;;24.73;15.77;;;;;;;;;;5019425;28;20096;-72
2022/11/23 05:53:21;;;;;;;33.00;16.95;;;;;;;;;;5012642;28;20048;-72
2022/11/23 05:55:47;;;;;;;25.48;15.43;;;;;;;;;;5028592;28;20046;-72
2022/11/23 05:58:13;;;;;;;26.85;15.15;;;;;;;;;;5030896;28;20496;-73
2022/11/23 06:00:39;;;;;;;26.65;15.40;;;;;;;;;;5020845;28;20489;-72
2022/11/23 06:03:05;;;;;;;25.80;15.65;;;;;;;;;;5021755;28;20456;-73
2022/11/23 06:05:31;;;;;;;27.90;14.88;;;;;;;;;;5016017;28;20575;-73
2022/11/23 06:07:57;;;;;;;27.73;15.05;;;;;;;;;;5021130;28;20053;-73
2022/11/23 06:10:24;;;;;;;27.02;13.65;;;;;;;;;;5021496;28;20045;-72
2022/11/23 06:12:51;;;;;;;25.52;13.85;;;;;;;;;;5023032;28;20076;-72
2022/11/23 06:15:17;;;;;;;29.60;14.40;;;;;;;;;;5018381;28;20045;-72
2022/11/23 06:17:43;;;;;;;23.98;13.38;;;;;;;;;;5022190;28;20041;-72
2022/11/23 06:20:10;;;;;;;29.35;12.88;;;;;;;;;;5018380;28;20044;-72
2022/11/23 06:22:36;;;;;;;21.70;12.45;;;;;;;;;;5021498;28;20096;-72
2022/11/23 06:25:02;;;;;;;27.30;12.05;;;;;;;;;;5015200;28;20045;-72
2022/11/23 06:27:28;;;;;;;21.83;10.27;;;;;;;;;;5024263;28;20408;-72
2022/11/23 06:29:54;;;;;;;21.67;10.80;;;;;;;;;;5023683;28;20111;-72
2022/11/23 06:32:20;;;;;;;24.02;10.02;;;;;;;;;;5025374;28;20668;-72
2022/11/23 06:34:46;;;;;;;25.08;10.18;;;;;;;;;;5019789;28;20420;-73
2022/11/23 06:37:12;;;;;;;24.88;9.82;;;;;;;;;;5019894;28;20957;-72
2022/11/23 06:39:39;;;;;;;24.13;10.20;;;;;;;;;;5019725;28;20080;-72
2022/11/23 06:42:05;;;;;;;22.58;10.75;;;;;;;;;;5006736;28;20415;-72
2022/11/23 06:44:31;;;;;;;23.35;10.50;;;;;;;;;;5016276;28;20057;-73
2022/11/23 06:46:57;;;;;;;23.83;10.18;;;;;;;;;;5012490;28;20060;-72
2022/11/23 06:49:24;;;;;;;23.80;10.07;;;;;;;;;;5014892;28;20049;-72
2022/11/23 06:51:50;;;;;;;26.48;9.73;;;;;;;;;;5022328;28;20050;-72
2022/11/23 06:54:16;;;;;;;31.60;9.05;;;;;;;;;;5019373;28;20519;-73
2022/11/23 06:56:42;;;;;;;20.55;8.45;;;;;;;;;;5021556;28;20496;-74
2022/11/23 06:59:09;;;;;;;21.88;8.15;;;;;;;;;;5028878;28;20505;-73
2022/11/23 07:01:35;;;;;;;21.40;7.68;;;;;;;;;;5021313;28;20049;-72
2022/11/23 07:04:01;;;;;;;23.02;8.80;;;;;;;;;;5024341;28;20124;-72
2022/11/23 07:06:27;;;;;;;22.45;8.73;;;;;;;;;;5013085;28;20049;-72
2022/11/23 07:08:54;;;;;;;27.45;12.50;;;;;;;;;;5022414;28;20045;-72
2022/11/23 07:11:20;;;;;;;32.60;13.98;;;;;;;;;;5028557;28;20137;-72
2022/11/23 07:13:46;;;;;;;30.00;13.50;;;;;;;;;;5016771;28;20050;-72
2022/11/23 07:16:13;;;;;;;33.90;13.07;;;;;;;;;;5022088;28;20119;-72
2022/11/23 07:18:39;;;;;;;24.27;11.85;;;;;;;;;;5016822;28;20508;-72
2022/11/23 07:21:05;;;;;;;30.42;11.38;;;;;;;;;;5019540;28;20468;-72
2022/11/23 07:23:32;;;;;;;21.95;10.35;;;;;;;;;;5050852;28;20099;-72
2022/11/23 07:25:58;;;;;;;25.77;10.35;;;;;;;;;;5046357;28;20123;-73
2022/11/23 07:28:24;;;;;;;24.63;9.60;;;;;;;;;;5019765;28;20124;-72
2022/11/23 07:30:53;;;;;;;23.02;9.20;;;;;;;;;;5013308;28;20050;-72
2022/11/23 07:33:19;;;;;;;24.30;9.82;;;;;;;;;;5013300;28;20038;-73
2022/11/23 07:35:46;;;;;;;22.02;9.52;;;;;;;;;;5013590;28;20045;-72
2022/11/23 07:38:12;;;;;;;26.60;9.75;;;;;;;;;;5020364;28;20052;-74
2022/11/23 07:40:38;;;;;;;23.35;9.60;;;;;;;;;;5029124;28;20073;-72
2022/11/23 07:43:05;;;;;;;26.42;10.25;;;;;;;;;;5026311;28;20041;-72
2022/11/23 07:45:32;;;;;;;20.67;9.95;;;;;;;;;;5027291;28;20049;-72
2022/11/23 07:47:58;;;;;;;22.02;10.18;;;;;;;;;;5007712;28;20053;-73
2022/11/23 07:50:24;;;;;;;26.35;10.60;;;;;;;;;;5033085;28;20049;-73
2022/11/23 07:52:51;;;;;;;20.92;9.73;;;;;;;;;;5010000;28;20104;-72
2022/11/23 07:55:17;;;;;;;27.08;10.98;;;;;;;;;;5013168;28;20560;-73
2022/11/23 07:57:43;;;;;;;27.27;11.68;;;;;;;;;;5012940;28;20046;-73
2022/11/23 08:00:09;;;;;;;25.33;11.05;;;;;;;;;;5012809;28;20050;-73
2022/11/23 08:02:35;;;;;;;25.65;11.43;;;;;;;;;;5017183;28;20085;-73
2022/11/23 08:05:01;;;;;;;26.90;11.68;;;;;;;;;;5032667;28;20038;-73
2022/11/23 08:07:27;;;;;;;27.38;11.38;;;;;;;;;;5032338;28;20203;-73
2022/11/23 08:09:53;;;;;;;26.60;10.57;;;;;;;;;;5025211;28;20420;-73
2022/11/23 08:12:20;;;;;;;21.67;10.48;;;;;;;;;;4999550;28;20049;-72
2022/11/23 08:14:46;;;;;;;26.30;10.68;;;;;;;;;;5026205;28;20041;-73
2022/11/23 08:17:12;;;;;;;23.67;9.57;;;;;;;;;;5022097;28;20440;-73
2022/11/23 08:19:38;;;;;;;20.98;9.57;;;;;;;;;;5014397;28;20041;-73
2022/11/23 08:22:04;;;;;;;18.50;8.98;;;;;;;;;;5030449;28;20040;-73
2022/11/23 08:24:30;;;;;;;26.77;9.38;;;;;;;;;;5031011;28;20115;-73
2022/11/23 08:26:56;;;;;;;23.50;9.02;;;;;;;;;;5031705;28;20115;-72
2022/11/23 08:29:22;;;;;;;22.38;9.40;;;;;;;;;;5022992;28;20083;-72
2022/11/23 08:31:48;;;;;;;20.42;8.60;;;;;;;;;;5032110;28;20056;-73
2022/11/23 08:34:16;;;;;;;22.85;9.18;;;;;;;;;;5027487;28;20056;-72
2022/11/23 08:36:42;;;;;;;23.33;8.93;;;;;;;;;;5001865;28;20042;-72
2022/11/23 08:39:10;;;;;;;27.38;8.45;;;;;;;;;;5014745;28;20172;-72
2022/11/23 08:41:37;;;;;;;17.17;8.18;;;;;;;;;;5020971;28;20570;-72
2022/11/23 08:44:03;;;;;;;27.80;8.68;;;;;;;;;;5013246;28;20054;-73
2022/11/23 08:46:29;;;;;;;21.75;8.02;;;;;;;;;;5012655;28;20062;-73
2022/11/23 08:48:55;;;;;;;22.48;8.18;;;;;;;;;;5012591;28;20386;-73
2022/11/23 08:51:21;;;;;;;25.95;8.88;;;;;;;;;;5012093;28;20049;-71
2022/11/23 08:53:48;;;;;;;25.52;9.27;;;;;;;;;;5018548;28;20042;-72
2022/11/23 08:56:14;;;;;;;24.67;7.68;;;;;;;;;;5027604;28;20046;-73
2022/11/23 08:58:41;;;;;;;22.42;8.50;;;;;;;;;;5017125;28;20041;-72
2022/11/23 09:01:08;;;;;;;21.65;8.00;;;;;;;;;;5018355;28;20045;-72
2022/11/23 09:03:34;;;;;;;20.23;7.28;;;;;;;;;;5022176;28;20449;-72
2022/11/23 09:06:00;;;;;;;25.80;7.60;;;;;;;;;;5011513;28;20112;-72
2022/11/23 09:08:26;;;;;;;20.48;7.55;;;;;;;;;;5029391;28;20565;-72
2022/11/23 09:10:52;;;;;;;22.67;7.40;;;;;;;;;;5022901;28;20041;-72
2022/11/23 09:13:18;;;;;;;23.73;7.05;;;;;;;;;;5012080;28;20420;-73
2022/11/23 09:15:45;;;;;;;20.98;6.70;;;;;;;;;;5012269;28;20377;-73
2022/11/23 09:18:11;;;;;;;21.45;6.65;;;;;;;;;;5011583;28;20042;-72
2022/11/23 09:20:39;;;;;;;18.73;6.00;;;;;;;;;;5020703;28;20136;-72
2022/11/23 09:23:05;;;;;;;23.52;5.95;;;;;;;;;;5022356;28;20048;-72
2022/11/23 09:25:31;;;;;;;22.40;5.93;;;;;;;;;;5031636;28;20046;-72
2022/11/23 09:27:58;;;;;;;19.70;5.25;;;;;;;;;;5031554;28;20472;-73
2022/11/23 09:30:24;;;;;;;18.27;5.40;;;;;;;;;;5030271;28;20385;-73
2022/11/23 09:32:50;;;;;;;17.27;5.90;;;;;;;;;;5011149;28;20713;-73
2022/11/23 09:35:16;;;;;;;21.42;5.72;;;;;;;;;;5005646;28;20053;-75
2022/11/23 09:37:42;;;;;;;17.38;4.55;;;;;;;;;;5034195;28;20049;-73
2022/11/23 09:40:12;;;;;;;20.08;4.72;;;;;;;;;;5035242;28;20045;-74
2022/11/23 09:42:41;;;;;;;18.83;4.35;;;;;;;;;;5024903;28;20052;-73
2022/11/23 09:45:10;;;;;;;16.77;4.53;;;;;;;;;;5027401;28;20497;-73
2022/11/23 09:47:51;;;;;;;20.13;5.00;;;;;;;;;;5031145;28;20053;-73
2022/11/23 09:50:21;;;;;;;22.65;4.70;;;;;;;;;;5024400;28;20049;-74
2022/11/23 09:52:47;;;;;;;18.70;4.60;;;;;;;;;;5014567;28;20453;-73
2022/11/23 09:55:28;;;;;;;17.05;4.22;;;;;;;;;;5018190;28;20053;-74
2022/11/23 09:57:58;;;;;;;17.17;4.03;;;;;;;;;;5038377;28;20086;-74
2022/11/23 10:00:25;;;;;;;14.15;3.75;;;;;;;;;;5049559;28;20412;-73
2022/11/23 10:02:51;;;;;;;18.52;4.32;;;;;;;;;;5034789;28;20116;-74
2022/11/23 10:05:21;;;;;;;16.23;4.43;;;;;;;;;;5024261;28;20041;-74
2022/11/23 10:08:06;;;;;;;13.73;4.00;;;;;;;;;;5034550;28;20378;-74
2022/11/23 10:10:41;;;;;;;14.70;3.90;;;;;;;;;;5033699;28;20284;-73
2022/11/23 10:13:16;;;;;;;21.52;4.82;;;;;;;;;;5020757;28;20054;-74
2022/11/23 10:15:52;;;;;;;15.20;4.18;;;;;;;;;;5029528;28;20119;-73
2022/11/23 10:18:27;;;;;;;18.58;4.45;;;;;;;;;;5030701;28;20050;-72
2022/11/23 10:21:13;;;;;;;18.15;4.60;;;;;;;;;;5015380;28;20045;-72
2022/11/23 10:23:47;;;;;;;21.70;4.32;;;;;;;;;;5017537;28;20099;-73
2022/11/23 10:26:15;;;;;;;18.80;4.30;;;;;;;;;;5033438;28;20052;-73
2022/11/23 10:28:41;;;;;;;17.70;4.05;;;;;;;;;;5033496;28;20041;-72
2022/11/23 10:31:12;;;;;;;20.17;4.20;;;;;;;;;;5032983;28;20049;-73
2022/11/23 10:33:51;;;;;;;22.55;4.45;;;;;;;;;;5031634;28;20051;-72
2022/11/23 10:36:17;;;;;;;21.35;3.92;;;;;;;;;;4996591;28;20385;-72
2022/11/23 10:38:44;;;;;;;17.35;4.00;;;;;;;;;;5013929;28;20050;-73
2022/11/23 10:41:17;;;;;;;22.05;3.83;;;;;;;;;;4996505;28;20060;-73
2022/11/23 10:43:47;;;;;;;18.42;3.42;;;;;;;;;;5014004;28;20050;-73
2022/11/23 10:46:30;;;;;;;19.23;3.40;;;;;;;;;;5014326;28;20041;-72
2022/11/23 10:49:07;;;;;;;18.25;3.30;;;;;;;;;;5015164;28;20068;-72
2022/11/23 10:51:34;;;;;;;21.10;3.83;;;;;;;;;;5020848;28;20041;-72
2022/11/23 10:54:01;;;;;;;18.23;3.50;;;;;;;;;;5013966;28;20104;-73
2022/11/23 10:56:28;;;;;;;25.40;4.03;;;;;;;;;;5013943;28;20050;-72
2022/11/23 10:58:54;;;;;;;18.85;3.75;;;;;;;;;;5014096;28;20447;-72
2022/11/23 11:01:25;;;;;;;22.45;3.88;;;;;;;;;;5024975;28;20053;-72
2022/11/23 11:03:52;;;;;;;20.05;3.38;;;;;;;;;;5020016;28;20116;-73
2022/11/23 11:06:22;;;;;;;20.63;3.85;;;;;;;;;;5014698;28;20044;-73
2022/11/23 11:08:50;;;;;;;21.50;3.72;;;;;;;;;;5014854;28;20107;-73
2022/11/23 11:11:27;;;;;;;15.23;3.13;;;;;;;;;;5009704;28;20455;-73
2022/11/23 11:14:11;;;;;;;23.77;4.20;;;;;;;;;;5015115;28;20056;-73
2022/11/23 11:16:38;;;;;;;20.77;3.70;;;;;;;;;;5014433;28;20052;-72
2022/11/23 11:19:20;;;;;;;19.08;3.55;;;;;;;;;;5031434;28;20129;-72
2022/11/23 11:21:46;;;;;;;18.73;3.40;;;;;;;;;;5001835;28;20500;-72
2022/11/23 11:24:20;;;;;;;21.10;3.85;;;;;;;;;;4995352;28;20053;-73
2022/11/23 11:26:48;;;;;;;18.75;3.38;;;;;;;;;;5013563;28;20046;-72
2022/11/23 11:29:24;;;;;;;16.77;3.28;;;;;;;;;;5012994;28;20088;-73
2022/11/23 11:32:03;;;;;;;14.07;2.83;;;;;;;;;;5013253;28;20038;-72
2022/11/23 11:34:31;;;;;;;17.88;3.08;;;;;;;;;;5013858;28;20045;-72
2022/11/23 11:37:16;;;;;;;18.90;2.97;;;;;;;;;;5013218;28;20046;-73
2022/11/23 11:40:02;;;;;;;16.45;3.65;;;;;;;;;;5013600;28;20046;-72
2022/11/23 11:42:38;;;;;;;18.33;3.28;;;;;;;;;;5015468;28;20056;-73
2022/11/23 11:45:06;;;;;;;17.58;3.38;;;;;;;;;;5017460;28;20412;-72
2022/11/23 11:47:36;;;;;;;16.75;3.00;;;;;;;;;;5019385;28;20046;-72
2022/11/23 11:50:21;;;;;;;18.80;3.22;;;;;;;;;;5029047;28;20411;-73
2022/11/23 11:52:48;;;;;;;15.23;3.25;;;;;;;;;;5013203;28;20049;-72
2022/11/23 11:55:34;;;;;;;14.23;3.20;;;;;;;;;;5013027;28;20046;-73
2022/11/23 11:58:09;;;;;;;15.10;3.03;;;;;;;;;;4995722;28;20054;-73
2022/11/23 12:00:36;;;;;;;15.95;3.30;;;;;;;;;;5014086;28;20073;-72
2022/11/23 12:03:02;;;;;;;14.48;3.17;;;;;;;;;;5015524;28;20045;-72
2022/11/23 12:05:49;;;;;;;14.13;2.80;;;;;;;;;;5015343;28;20106;-71
2022/11/23 12:08:17;;;;;;;16.48;3.00;;;;;;;;;;5013384;28;20049;-72
2022/11/23 12:10:49;;;;;;;14.10;3.55;;;;;;;;;;5032649;28;20051;-72
2022/11/23 12:13:20;;;;;;;12.65;3.78;;;;;;;;;;5032244;28;20120;-72
2022/11/23 12:15:46;;;;;;;;;;;;;;;;;;5023997;28;20060;-72
2022/11/23 12:18:22;;;;;;;15.55;3.47;;;;;;;;;;5031672;28;19925;-72
2022/11/23 12:21:00;;;;;;;16.08;3.80;;;;;;;;;;5031078;28;20041;-73
2022/11/23 12:23:36;;;;;;;13.88;2.97;;;;;;;;;;5031764;28;20057;-73
2022/11/23 12:26:02;;;;;;;14.50;3.95;;;;;;;;;;4996456;28;20404;-73
2022/11/23 12:28:28;;;;;;;15.45;3.20;;;;;;;;;;5013484;28;20057;-74
2022/11/23 12:30:54;;;;;;;13.13;4.03;;;;;;;;;;5012006;28;20492;-73
2022/11/23 12:33:20;;;;;;;15.70;2.78;;;;;;;;;;4978150;28;20068;-73
2022/11/23 12:35:46;;;;;;;15.68;3.63;;;;;;;;;;5012204;28;20042;-73
2022/11/23 12:38:12;;;;;;;14.98;3.78;;;;;;;;;;5015561;28;20508;-73
2022/11/23 12:40:57;;;;;;;12.02;3.08;;;;;;;;;;5014974;28;20053;-73
2022/11/23 12:43:28;;;;;;;15.07;3.90;;;;;;;;;;5020024;28;20405;-74
2022/11/23 12:46:05;;;;;;;13.07;3.17;;;;;;;;;;5018064;28;20562;-74
2022/11/23 12:48:47;;;;;;;13.18;3.53;;;;;;;;;;5031683;28;20160;-74
2022/11/23 12:51:19;;;;;;;13.35;3.47;;;;;;;;;;5017821;28;20053;-73
2022/11/23 12:53:58;;;;;;;15.98;2.70;;;;;;;;;;5013516;28;20133;-73
2022/11/23 12:56:34;;;;;;;13.65;3.42;;;;;;;;;;5028098;28;20052;-74
2022/11/23 12:59:00;;;;;;;10.35;2.53;;;;;;;;;;5031910;28;20049;-74
2022/11/23 13:01:31;;;;;;;14.43;2.28;;;;;;;;;;5024805;28;20488;-73
2022/11/23 13:04:15;;;;;;;12.87;2.30;;;;;;;;;;5012331;28;20046;-73
2022/11/23 13:07:00;;;;;;;17.02;2.30;;;;;;;;;;5011934;28;20290;-73
2022/11/23 13:09:44;;;;;;;13.10;2.70;;;;;;;;;;5015507;28;20038;-73
2022/11/23 13:12:13;;;;;;;12.85;2.50;;;;;;;;;;5020291;28;20112;-73
2022/11/23 13:14:58;;;;;;;13.45;2.15;;;;;;;;;;5033793;28;20049;-73
2022/11/23 13:17:24;;;;;;;21.13;2.92;;;;;;;;;;5035631;28;20049;-73
2022/11/23 13:19:50;;;;;;;11.75;2.30;;;;;;;;;;5034696;28;20045;-74
2022/11/23 13:22:18;;;;;;;14.75;2.92;;;;;;;;;;5033014;28;20111;-74
2022/11/23 13:25:02;;;;;;;13.98;2.25;;;;;;;;;;5026561;28;20485;-74
2022/11/23 13:27:28;;;;;;;11.85;2.22;;;;;;;;;;5017366;28;20464;-74
2022/11/23 13:29:57;;;;;;;11.43;2.28;;;;;;;;;;5035164;28;20045;-74
2022/11/23 13:32:38;;;;;;;12.27;2.40;;;;;;;;;;5026964;28;20103;-74
2022/11/23 13:35:23;;;;;;;15.10;2.90;;;;;;;;;;5019221;28;20500;-74
2022/11/23 13:37:55;;;;;;;15.00;2.45;;;;;;;;;;5015571;28;20046;-74
2022/11/23 13:40:29;;;;;;;13.32;2.75;;;;;;;;;;5021621;28;20041;-73
2022/11/23 13:43:01;;;;;;;10.88;2.35;;;;;;;;;;4997121;28;20076;-74
2022/11/23 13:45:29;;;;;;;13.80;2.13;;;;;;;;;;5014863;28;20046;-73
2022/11/23 13:48:08;;;;;;;12.45;2.40;;;;;;;;;;5015032;28;20044;-73
2022/11/23 13:50:34;;;;;;;11.55;2.58;;;;;;;;;;5021504;28;20069;-74
2022/11/23 13:53:01;;;;;;;11.43;1.98;;;;;;;;;;5025472;28;20074;-73
2022/11/23 13:55:34;;;;;;;11.88;2.30;;;;;;;;;;5033000;28;20052;-74
2022/11/23 13:58:19;;;;;;;10.68;2.25;;;;;;;;;;5035018;28;20046;-74
2022/11/23 14:00:50;;;;;;;15.13;2.33;;;;;;;;;;5026114;28;20065;-74
2022/11/23 14:03:35;;;;;;;14.70;2.60;;;;;;;;;;4997414;28;20121;-74
2022/11/23 14:06:01;;;;;;;12.82;2.42;;;;;;;;;;5013814;28;20034;-73
2022/11/23 14:08:28;;;;;;;16.45;2.78;;;;;;;;;;5015170;28;20438;-74
2022/11/23 14:10:54;;;;;;;16.42;2.83;;;;;;;;;;5015069;28;20096;-74
2022/11/23 14:13:23;;;;;;;12.73;2.35;;;;;;;;;;5014526;28;20047;-74
2022/11/23 14:15:54;;;;;;;11.68;2.45;;;;;;;;;;5024546;28;20593;-74
2022/11/23 14:18:20;;;;;;;;;;;;;;;;;;5014928;28;20125;-74
2022/11/23 14:21:07;;;;;;;13.95;2.60;;;;;;;;;;5024424;28;20328;-75
2022/11/23 14:23:36;;;;;;;13.65;2.45;;;;;;;;;;4992967;28;20626;-74
2022/11/23 14:26:05;;;;;;;10.82;2.08;;;;;;;;;;5015214;28;20034;-74
2022/11/23 14:28:46;;;;;;;10.13;2.25;;;;;;;;;;5012054;28;20393;-74
2022/11/23 14:31:12;;;;;;;;;;;;;;;;;;5021961;28;20110;-74